Time;durP1;ratioP1;P1;durP2;ratioP2;P2;SDS_P1;SDS_P2;PMS_P1;PMS_P2;Temp;Humidity;BMP_temperature;BMP_pressure;BME280_temperature;BME280_humidity;BME280_pressure;Samples;Min_cycle;Max_cycle;Signal;HPM_P1;HPM_P2
2023/02/28 00:00:35;;;;;;;7.03;3.63;;;;;;;;;;5042192;28;20052;-77
2023/02/28 00:03:02;;;;;;;7.75;4.15;;;;;;;;;;5041519;28;20234;-79
2023/02/28 00:05:29;;;;;;;6.93;4.10;;;;;;;;;;5038854;28;20073;-78
2023/02/28 00:07:57;;;;;;;7.50;4.07;;;;;;;;;;5036593;28;20109;-78
2023/02/28 00:10:26;;;;;;;11.00;4.65;;;;;;;;;;5022450;28;20050;-77
2023/02/28 00:12:56;;;;;;;7.03;3.83;;;;;;;;;;5033924;28;20477;-79
2023/02/28 00:15:24;;;;;;;9.18;4.57;;;;;;;;;;5075801;22;20040;-79
2023/02/28 00:17:50;;;;;;;6.53;4.05;;;;;;;;;;5079630;28;20064;-79
2023/02/28 00:20:18;;;;;;;9.48;4.60;;;;;;;;;;5079703;28;20044;-80
2023/02/28 00:22:47;;;;;;;8.60;4.63;;;;;;;;;;5076138;28;20056;-80
2023/02/28 00:25:17;;;;;;;7.57;3.88;;;;;;;;;;5061157;28;20076;-79
2023/02/28 00:27:45;;;;;;;7.97;4.33;;;;;;;;;;5056510;28;20060;-79
2023/02/28 00:30:14;;;;;;;8.88;4.55;;;;;;;;;;5052363;28;20065;-79
2023/02/28 00:32:41;;;;;;;8.73;4.85;;;;;;;;;;5051901;28;20049;-80
2023/02/28 00:35:09;;;;;;;7.15;3.88;;;;;;;;;;5052125;28;20041;-79
2023/02/28 00:37:36;;;;;;;8.63;5.07;;;;;;;;;;5049502;28;20053;-78
2023/02/28 00:40:04;;;;;;;7.45;4.68;;;;;;;;;;5041677;28;20069;-77
2023/02/28 00:42:31;;;;;;;8.30;4.47;;;;;;;;;;5042275;28;20053;-78
2023/02/28 00:44:59;;;;;;;7.18;3.85;;;;;;;;;;5044912;28;20531;-79
2023/02/28 00:47:29;;;;;;;8.57;4.80;;;;;;;;;;5046696;28;20415;-80
2023/02/28 00:49:55;;;;;;;7.00;3.85;;;;;;;;;;5042465;28;20492;-77
2023/02/28 00:52:22;;;;;;;8.60;4.50;;;;;;;;;;5041879;28;20121;-77
2023/02/28 00:54:49;;;;;;;8.10;4.25;;;;;;;;;;5040813;28;20060;-78
2023/02/28 00:57:15;;;;;;;7.55;4.07;;;;;;;;;;5042032;28;20129;-78
2023/02/28 00:59:42;;;;;;;9.65;4.43;;;;;;;;;;5043881;28;20050;-78
2023/02/28 01:02:10;;;;;;;8.07;4.25;;;;;;;;;;5045756;28;20080;-78
2023/02/28 01:04:37;;;;;;;7.68;4.15;;;;;;;;;;5042030;28;20099;-79
2023/02/28 01:07:03;;;;;;;6.70;4.35;;;;;;;;;;5020091;28;20132;-78
2023/02/28 01:09:30;;;;;;;8.02;4.70;;;;;;;;;;5033602;28;20065;-78
2023/02/28 01:11:57;;;;;;;9.23;4.65;;;;;;;;;;5046112;28;20073;-79
2023/02/28 01:14:23;;;;;;;10.48;5.25;;;;;;;;;;5045776;28;20484;-79
2023/02/28 01:16:51;;;;;;;8.27;3.92;;;;;;;;;;5046049;28;20112;-78
2023/02/28 01:19:19;;;;;;;8.57;4.72;;;;;;;;;;5045098;28;20484;-79
2023/02/28 01:21:46;;;;;;;11.57;5.57;;;;;;;;;;5040753;28;20124;-78
2023/02/28 01:24:14;;;;;;;9.15;4.60;;;;;;;;;;5042296;28;20073;-77
2023/02/28 01:26:41;;;;;;;7.72;4.63;;;;;;;;;;5038454;28;20049;-78
2023/02/28 01:29:08;;;;;;;10.20;4.90;;;;;;;;;;5041504;28;20049;-78
2023/02/28 01:31:34;;;;;;;8.00;4.63;;;;;;;;;;5044567;28;20069;-78
2023/02/28 01:34:01;;;;;;;10.70;4.53;;;;;;;;;;5020983;28;20408;-78
2023/02/28 01:36:29;;;;;;;11.68;5.18;;;;;;;;;;5025411;28;20049;-78
2023/02/28 01:38:56;;;;;;;12.43;4.65;;;;;;;;;;5024519;28;20412;-79
2023/02/28 01:41:25;;;;;;;10.57;5.22;;;;;;;;;;5035942;28;20049;-78
2023/02/28 01:43:59;;;;;;;10.00;4.82;;;;;;;;;;5039245;28;20068;-79
2023/02/28 01:46:25;;;;;;;9.48;5.03;;;;;;;;;;5045125;28;20041;-79
2023/02/28 01:48:57;;;;;;;9.90;5.15;;;;;;;;;;5037607;28;20049;-79
2023/02/28 01:51:31;;;;;;;7.75;4.20;;;;;;;;;;5037375;28;20613;-78
2023/02/28 01:54:02;;;;;;;7.63;4.45;;;;;;;;;;5044573;28;20404;-79
2023/02/28 01:56:33;;;;;;;10.57;5.15;;;;;;;;;;5042803;28;20052;-80
2023/02/28 01:59:00;;;;;;;8.70;4.60;;;;;;;;;;5039721;28;20050;-78
2023/02/28 02:01:28;;;;;;;7.95;4.25;;;;;;;;;;5043426;28;20128;-79
2023/02/28 02:03:57;;;;;;;11.00;4.80;;;;;;;;;;5044432;28;20045;-80
2023/02/28 02:06:27;;;;;;;7.35;4.07;;;;;;;;;;5033618;28;20050;-79
2023/02/28 02:08:55;;;;;;;9.05;4.57;;;;;;;;;;5022941;28;20571;-80
2023/02/28 02:11:23;;;;;;;9.10;4.38;;;;;;;;;;5037103;28;20518;-79
2023/02/28 02:14:12;;;;;;;8.98;4.60;;;;;;;;;;5038313;28;20053;-79
2023/02/28 02:16:50;;;;;;;10.05;4.78;;;;;;;;;;5045226;28;20053;-80
2023/02/28 02:19:44;;;;;;;10.18;4.68;;;;;;;;;;5043960;28;20448;-79
2023/02/28 02:22:31;;;;;;;9.63;4.70;;;;;;;;;;5044099;28;20063;-79
2023/02/28 02:25:24;;;;;;;9.15;4.82;;;;;;;;;;5043955;28;20076;-79
2023/02/28 02:28:39;;;;;;;7.75;4.07;;;;;;;;;;5041356;28;20054;-79
2023/02/28 02:31:36;;;;;;;9.95;4.38;;;;;;;;;;4984320;28;20111;-79
2023/02/28 02:34:40;;;;;;;7.88;4.25;;;;;;;;;;5018436;28;20049;-78
2023/02/28 02:37:16;;;;;;;8.25;4.55;;;;;;;;;;5044830;28;20076;-79
2023/02/28 02:39:52;;;;;;;9.27;5.15;;;;;;;;;;5042093;28;20037;-78
2023/02/28 02:42:26;;;;;;;8.85;5.25;;;;;;;;;;5037200;28;20109;-79
2023/02/28 02:45:01;;;;;;;9.38;4.63;;;;;;;;;;5032192;28;20080;-79
2023/02/28 02:47:31;;;;;;;9.13;4.93;;;;;;;;;;5037971;28;20041;-79
2023/02/28 02:50:05;;;;;;;8.80;4.68;;;;;;;;;;5037496;28;20108;-79
2023/02/28 02:52:39;;;;;;;8.90;5.05;;;;;;;;;;5039384;28;20077;-79
2023/02/28 02:55:07;;;;;;;13.30;5.22;;;;;;;;;;5038778;28;20069;-78
2023/02/28 02:57:38;;;;;;;8.98;5.05;;;;;;;;;;5038491;28;20133;-79
2023/02/28 03:00:08;;;;;;;7.57;4.80;;;;;;;;;;5037328;28;20080;-79
2023/02/28 03:02:37;;;;;;;8.20;4.97;;;;;;;;;;5037441;28;20060;-79
2023/02/28 03:05:09;;;;;;;9.70;5.07;;;;;;;;;;5037249;28;20049;-79
2023/02/28 03:07:36;;;;;;;10.80;4.70;;;;;;;;;;5038782;28;20088;-79
2023/02/28 03:10:02;;;;;;;8.30;4.53;;;;;;;;;;5039114;28;20509;-79
2023/02/28 03:12:34;;;;;;;11.50;4.88;;;;;;;;;;5040012;28;20073;-80
2023/02/28 03:15:11;;;;;;;9.15;4.72;;;;;;;;;;5039085;28;20101;-79
2023/02/28 03:18:00;;;;;;;9.73;5.10;;;;;;;;;;5040649;28;20073;-80
2023/02/28 03:20:39;;;;;;;9.52;5.15;;;;;;;;;;5040124;28;20045;-79
2023/02/28 03:23:15;;;;;;;9.80;4.78;;;;;;;;;;5040332;28;20104;-80
2023/02/28 03:25:52;;;;;;;9.32;4.50;;;;;;;;;;5040454;28;20053;-79
2023/02/28 03:28:28;;;;;;;10.60;4.97;;;;;;;;;;5039149;28;20133;-80
2023/02/28 03:31:00;;;;;;;11.60;5.15;;;;;;;;;;5033238;28;20055;-79
2023/02/28 03:33:31;;;;;;;10.93;5.35;;;;;;;;;;5032386;28;20095;-79
2023/02/28 03:36:03;;;;;;;10.45;4.90;;;;;;;;;;5031707;28;20132;-79
2023/02/28 03:38:35;;;;;;;10.98;5.55;;;;;;;;;;5031668;28;20045;-79
2023/02/28 03:41:07;;;;;;;10.07;5.47;;;;;;;;;;5012524;28;20148;-79
2023/02/28 03:43:37;;;;;;;8.68;5.05;;;;;;;;;;5023150;28;20091;-79
2023/02/28 03:46:09;;;;;;;11.27;5.32;;;;;;;;;;5032585;28;20061;-79
2023/02/28 03:48:41;;;;;;;10.45;5.13;;;;;;;;;;5032163;28;20140;-79
2023/02/28 03:51:13;;;;;;;8.88;5.35;;;;;;;;;;5031598;28;20052;-79
2023/02/28 03:53:43;;;;;;;11.25;5.45;;;;;;;;;;5032461;28;20051;-79
2023/02/28 03:56:20;;;;;;;11.27;5.97;;;;;;;;;;5033509;28;20077;-78
2023/02/28 03:58:52;;;;;;;9.57;5.78;;;;;;;;;;5033790;28;20052;-78
2023/02/28 04:01:23;;;;;;;11.25;6.03;;;;;;;;;;5033449;28;20046;-79
2023/02/28 04:03:50;;;;;;;11.68;6.72;;;;;;;;;;5037306;28;20508;-79
2023/02/28 04:06:21;;;;;;;10.65;5.78;;;;;;;;;;5039668;28;20049;-79
2023/02/28 04:08:47;;;;;;;13.07;6.13;;;;;;;;;;5038967;28;20053;-79
2023/02/28 04:11:21;;;;;;;12.48;5.78;;;;;;;;;;5037850;28;20518;-79
2023/02/28 04:13:48;;;;;;;11.52;5.78;;;;;;;;;;5042667;28;20041;-79
2023/02/28 04:16:15;;;;;;;13.63;6.55;;;;;;;;;;5042294;28;20050;-79
2023/02/28 04:18:43;;;;;;;12.60;6.25;;;;;;;;;;5038190;28;20437;-79
2023/02/28 04:21:10;;;;;;;11.50;5.95;;;;;;;;;;5022577;28;20048;-79
2023/02/28 04:23:39;;;;;;;13.75;6.35;;;;;;;;;;5037035;28;20073;-79
2023/02/28 04:26:06;;;;;;;11.82;6.65;;;;;;;;;;5039466;28;20137;-79
2023/02/28 04:28:33;;;;;;;13.07;7.10;;;;;;;;;;5040899;28;20049;-79
2023/02/28 04:31:02;;;;;;;14.13;6.93;;;;;;;;;;5040419;28;20509;-79
2023/02/28 04:33:29;;;;;;;14.25;6.80;;;;;;;;;;5037440;28;20128;-77
2023/02/28 04:36:00;;;;;;;11.25;5.95;;;;;;;;;;5035820;28;20132;-79
2023/02/28 04:38:26;;;;;;;;;;;;;;;;;;5036342;28;20052;-78
2023/02/28 04:40:54;;;;;;;12.30;5.85;;;;;;;;;;5017052;28;20306;-78
2023/02/28 04:43:21;;;;;;;12.25;6.45;;;;;;;;;;5032228;28;20506;-78
2023/02/28 04:45:47;;;;;;;12.55;6.00;;;;;;;;;;5036222;28;20128;-77
2023/02/28 04:48:14;;;;;;;14.07;6.68;;;;;;;;;;5036380;28;20056;-78
2023/02/28 04:50:41;;;;;;;16.85;6.63;;;;;;;;;;5035545;28;20482;-77
2023/02/28 04:53:07;;;;;;;15.98;6.80;;;;;;;;;;5036443;28;20073;-78
2023/02/28 04:55:34;;;;;;;10.63;6.05;;;;;;;;;;5036070;28;20403;-78
2023/02/28 04:58:02;;;;;;;14.63;6.18;;;;;;;;;;5035995;28;20492;-78
2023/02/28 05:00:29;;;;;;;14.82;7.65;;;;;;;;;;5035867;28;20405;-78
2023/02/28 05:02:55;;;;;;;10.63;5.93;;;;;;;;;;5035140;28;20133;-79
2023/02/28 05:05:22;;;;;;;15.48;6.88;;;;;;;;;;5034198;28;20140;-77
2023/02/28 05:07:49;;;;;;;12.88;6.97;;;;;;;;;;5025002;28;20044;-78
2023/02/28 05:10:16;;;;;;;16.52;7.60;;;;;;;;;;5034616;28;20071;-79
2023/02/28 05:12:42;;;;;;;13.73;7.00;;;;;;;;;;5034314;28;20050;-78
2023/02/28 05:15:13;;;;;;;13.57;7.00;;;;;;;;;;5034650;28;20050;-79
2023/02/28 05:17:40;;;;;;;13.05;7.25;;;;;;;;;;5035308;28;20120;-78
2023/02/28 05:20:10;;;;;;;14.95;7.15;;;;;;;;;;5034431;28;20046;-78
2023/02/28 05:22:37;;;;;;;15.85;7.07;;;;;;;;;;5034274;28;20065;-78
2023/02/28 05:25:05;;;;;;;14.98;8.05;;;;;;;;;;5034046;28;20103;-78
2023/02/28 05:27:32;;;;;;;13.15;7.07;;;;;;;;;;5034521;28;20185;-78
2023/02/28 05:29:59;;;;;;;13.50;7.90;;;;;;;;;;5034157;28;20045;-78
2023/02/28 05:32:27;;;;;;;16.15;7.57;;;;;;;;;;5034852;28;20489;-78
2023/02/28 05:34:53;;;;;;;16.88;8.50;;;;;;;;;;5034257;28;20132;-78
2023/02/28 05:37:20;;;;;;;17.02;8.23;;;;;;;;;;5034069;28;20132;-79
2023/02/28 05:39:47;;;;;;;17.15;8.40;;;;;;;;;;5033775;28;20045;-79
2023/02/28 05:42:14;;;;;;;15.82;7.97;;;;;;;;;;5034371;28;20128;-79
2023/02/28 05:44:41;;;;;;;21.27;9.90;;;;;;;;;;5034054;28;20125;-78
2023/02/28 05:47:08;;;;;;;17.63;8.68;;;;;;;;;;5016404;28;20100;-79
2023/02/28 05:49:36;;;;;;;18.58;9.32;;;;;;;;;;5033640;28;20048;-78
2023/02/28 05:52:03;;;;;;;17.17;9.23;;;;;;;;;;5034362;28;20049;-78
2023/02/28 05:54:29;;;;;;;16.85;8.73;;;;;;;;;;5033789;28;20415;-78
2023/02/28 05:56:56;;;;;;;17.10;8.57;;;;;;;;;;5034164;28;20133;-79
2023/02/28 05:59:22;;;;;;;18.02;9.52;;;;;;;;;;5034200;28;20667;-79
2023/02/28 06:01:49;;;;;;;16.05;9.38;;;;;;;;;;5034332;28;20064;-80
2023/02/28 06:04:18;;;;;;;17.23;8.88;;;;;;;;;;5035709;28;20041;-79
2023/02/28 06:06:47;;;;;;;16.67;7.93;;;;;;;;;;5032256;28;20045;-79
2023/02/28 06:09:14;;;;;;;20.35;10.32;;;;;;;;;;5034355;28;20049;-80
2023/02/28 06:11:41;;;;;;;18.40;8.68;;;;;;;;;;5035201;28;20528;-79
2023/02/28 06:14:14;;;;;;;19.02;9.18;;;;;;;;;;5034751;28;20041;-79
2023/02/28 06:16:40;;;;;;;20.02;9.70;;;;;;;;;;5026296;28;20150;-79
2023/02/28 06:19:08;;;;;;;19.17;9.35;;;;;;;;;;5034642;28;20053;-79
2023/02/28 06:21:34;;;;;;;21.00;10.07;;;;;;;;;;5049489;28;20077;-79
2023/02/28 06:24:03;;;;;;;19.45;9.70;;;;;;;;;;5052988;28;20048;-79
2023/02/28 06:26:30;;;;;;;21.73;9.93;;;;;;;;;;5049901;28;20132;-79
2023/02/28 06:28:56;;;;;;;20.92;9.85;;;;;;;;;;5036244;28;20053;-79
2023/02/28 06:31:25;;;;;;;17.30;9.05;;;;;;;;;;5036591;28;20049;-78
2023/02/28 06:33:52;;;;;;;18.65;9.85;;;;;;;;;;5036358;28;20046;-78
2023/02/28 06:36:19;;;;;;;23.70;11.05;;;;;;;;;;5035883;28;20057;-78
2023/02/28 06:38:51;;;;;;;18.45;9.20;;;;;;;;;;5031134;28;20531;-78
2023/02/28 06:41:19;;;;;;;16.92;9.30;;;;;;;;;;5022173;28;20045;-79
2023/02/28 06:43:45;;;;;;;19.55;9.88;;;;;;;;;;5033621;28;20091;-78
2023/02/28 06:46:14;;;;;;;17.80;9.10;;;;;;;;;;5033341;28;20059;-78
2023/02/28 06:48:41;;;;;;;23.48;10.80;;;;;;;;;;5032192;28;20143;-78
2023/02/28 06:51:10;;;;;;;20.45;10.32;;;;;;;;;;5033727;28;20101;-79
2023/02/28 06:53:36;;;;;;;23.20;10.32;;;;;;;;;;5034027;28;20068;-78
2023/02/28 06:56:06;;;;;;;21.55;10.85;;;;;;;;;;5033793;28;20109;-79
2023/02/28 06:58:34;;;;;;;22.75;11.00;;;;;;;;;;5034984;28;20092;-79
2023/02/28 07:01:01;;;;;;;19.75;10.95;;;;;;;;;;5034859;28;20056;-79
2023/02/28 07:03:28;;;;;;;21.13;10.52;;;;;;;;;;5035202;28;20052;-79
2023/02/28 07:05:56;;;;;;;24.65;11.45;;;;;;;;;;5029675;28;20049;-79
2023/02/28 07:08:23;;;;;;;21.92;11.65;;;;;;;;;;5018649;28;20099;-79
2023/02/28 07:10:53;;;;;;;22.85;11.82;;;;;;;;;;5034604;28;20128;-79
2023/02/28 07:13:21;;;;;;;20.83;10.52;;;;;;;;;;5033132;28;20045;-79
2023/02/28 07:15:55;;;;;;;23.17;10.27;;;;;;;;;;5033661;28;20041;-79
2023/02/28 07:18:22;;;;;;;21.98;10.98;;;;;;;;;;5034262;28;20049;-79
2023/02/28 07:20:49;;;;;;;25.05;11.25;;;;;;;;;;5034713;28;20101;-78
2023/02/28 07:23:16;;;;;;;23.92;11.93;;;;;;;;;;5027819;28;20046;-80
2023/02/28 07:25:42;;;;;;;22.73;11.23;;;;;;;;;;5029856;28;20125;-79
2023/02/28 07:28:09;;;;;;;25.45;12.52;;;;;;;;;;5027922;28;20073;-80
2023/02/28 07:30:36;;;;;;;23.92;12.55;;;;;;;;;;5028830;28;20050;-79
2023/02/28 07:33:04;;;;;;;26.15;13.38;;;;;;;;;;5026433;28;20046;-78
2023/02/28 07:35:31;;;;;;;24.60;12.95;;;;;;;;;;5033859;28;20050;-78
2023/02/28 07:37:58;;;;;;;25.08;12.85;;;;;;;;;;5029006;28;20133;-79
2023/02/28 07:40:25;;;;;;;26.17;12.20;;;;;;;;;;5026549;28;20045;-79
2023/02/28 07:42:51;;;;;;;23.40;12.93;;;;;;;;;;5037994;28;20469;-78
2023/02/28 07:45:19;;;;;;;22.60;11.88;;;;;;;;;;5038272;28;20062;-78
2023/02/28 07:47:46;;;;;;;25.70;12.80;;;;;;;;;;5038614;28;20463;-78
2023/02/28 07:50:16;;;;;;;25.92;12.77;;;;;;;;;;5037946;28;20554;-79
2023/02/28 07:52:42;;;;;;;24.15;12.55;;;;;;;;;;5036277;28;20136;-79
2023/02/28 07:55:10;;;;;;;25.25;11.88;;;;;;;;;;5018903;28;20073;-78
2023/02/28 07:57:37;;;;;;;23.95;12.50;;;;;;;;;;5039997;28;20416;-78
2023/02/28 08:00:04;;;;;;;23.75;12.85;;;;;;;;;;5037930;28;20088;-78
2023/02/28 08:02:31;;;;;;;21.10;12.07;;;;;;;;;;5038454;28;20128;-78
2023/02/28 08:04:57;;;;;;;26.40;12.73;;;;;;;;;;5037796;28;20068;-78
2023/02/28 08:07:25;;;;;;;26.23;13.43;;;;;;;;;;5037390;28;20053;-78
2023/02/28 08:09:52;;;;;;;23.00;11.50;;;;;;;;;;5035919;28;20509;-78
2023/02/28 08:12:19;;;;;;;25.42;12.45;;;;;;;;;;5038376;28;20103;-80
2023/02/28 08:14:45;;;;;;;23.17;12.70;;;;;;;;;;5033757;28;20046;-79
2023/02/28 08:17:12;;;;;;;23.60;12.68;;;;;;;;;;5032238;28;20562;-80
2023/02/28 08:19:39;;;;;;;26.73;13.68;;;;;;;;;;5023882;28;20061;-80
2023/02/28 08:22:06;;;;;;;23.63;12.23;;;;;;;;;;5037655;28;20077;-80
2023/02/28 08:24:34;;;;;;;27.08;14.05;;;;;;;;;;5036879;28;20088;-80
2023/02/28 08:27:00;;;;;;;24.52;13.73;;;;;;;;;;5055373;28;20086;-79
2023/02/28 08:29:30;;;;;;;27.85;14.80;;;;;;;;;;5038338;28;20096;-85
2023/02/28 08:31:56;;;;;;;27.15;13.30;;;;;;;;;;5027374;28;20038;-83
2023/02/28 08:34:23;;;;;;;29.00;12.77;;;;;;;;;;5040966;28;20133;-83
2023/02/28 08:36:50;;;;;;;32.03;14.90;;;;;;;;;;5038747;28;20495;-79
2023/02/28 08:39:16;;;;;;;27.17;14.23;;;;;;;;;;5039476;28;20046;-80
2023/02/28 08:41:44;;;;;;;26.67;13.65;;;;;;;;;;5034925;28;20042;-80
2023/02/28 08:44:11;;;;;;;27.90;14.57;;;;;;;;;;5019307;28;20054;-80
2023/02/28 08:46:39;;;;;;;26.80;13.20;;;;;;;;;;5037489;28;20049;-79
2023/02/28 08:49:06;;;;;;;24.75;13.13;;;;;;;;;;5037002;28;20073;-79
2023/02/28 08:51:33;;;;;;;27.02;13.95;;;;;;;;;;5038066;28;20049;-79
2023/02/28 08:54:01;;;;;;;25.25;13.77;;;;;;;;;;5032979;28;20076;-79
2023/02/28 08:56:29;;;;;;;29.48;14.48;;;;;;;;;;5033437;28;20045;-79
2023/02/28 08:58:58;;;;;;;31.80;14.07;;;;;;;;;;5030255;28;20657;-79
2023/02/28 09:01:27;;;;;;;28.52;14.68;;;;;;;;;;5038111;28;20060;-79
2023/02/28 09:03:55;;;;;;;25.90;14.55;;;;;;;;;;5031717;28;20045;-79
2023/02/28 09:06:24;;;;;;;28.20;15.30;;;;;;;;;;5038792;28;20133;-79
2023/02/28 09:08:51;;;;;;;28.58;14.63;;;;;;;;;;5038358;28;20042;-80
2023/02/28 09:11:19;;;;;;;29.38;14.43;;;;;;;;;;5038745;28;20057;-80
2023/02/28 09:13:46;;;;;;;29.15;15.07;;;;;;;;;;5038234;28;20080;-79
2023/02/28 09:16:16;;;;;;;24.38;13.45;;;;;;;;;;5027927;28;20096;-80
2023/02/28 09:18:44;;;;;;;28.57;14.97;;;;;;;;;;5033860;28;20045;-80
2023/02/28 09:21:13;;;;;;;25.33;13.90;;;;;;;;;;5037094;28;20109;-80
2023/02/28 09:23:41;;;;;;;27.52;14.43;;;;;;;;;;5029913;28;20046;-80
2023/02/28 09:26:08;;;;;;;27.02;14.10;;;;;;;;;;5023893;28;20046;-79
2023/02/28 09:28:35;;;;;;;25.50;13.18;;;;;;;;;;5035800;28;20049;-80
2023/02/28 09:31:04;;;;;;;26.13;14.20;;;;;;;;;;5027299;28;20077;-80
2023/02/28 09:33:33;;;;;;;25.42;14.25;;;;;;;;;;5037237;28;20068;-79
2023/02/28 09:36:02;;;;;;;25.23;13.55;;;;;;;;;;5027845;28;20058;-80
2023/02/28 09:38:28;;;;;;;29.10;15.75;;;;;;;;;;5035694;28;20080;-80
2023/02/28 09:40:59;;;;;;;31.95;14.88;;;;;;;;;;5027045;28;20088;-80
2023/02/28 09:43:29;;;;;;;29.38;14.93;;;;;;;;;;5034633;28;20121;-80
2023/02/28 09:46:00;;;;;;;25.13;14.35;;;;;;;;;;5038624;28;20053;-80
2023/02/28 09:48:30;;;;;;;;;;;;;;;;;;5037837;28;20046;-79
2023/02/28 09:51:03;;;;;;;27.95;14.45;;;;;;;;;;5036899;28;19943;-80
2023/02/28 09:53:33;;;;;;;28.60;13.35;;;;;;;;;;5038894;28;20049;-79
2023/02/28 09:56:05;;;;;;;26.33;12.97;;;;;;;;;;5042903;28;20117;-79
2023/02/28 09:58:36;;;;;;;24.80;13.90;;;;;;;;;;5041184;28;20279;-80
2023/02/28 10:01:13;;;;;;;28.20;13.68;;;;;;;;;;5039302;28;20575;-79
2023/02/28 10:03:43;;;;;;;24.23;13.05;;;;;;;;;;5037048;28;20052;-80
2023/02/28 10:06:18;;;;;;;27.58;14.55;;;;;;;;;;5039597;28;20073;-79
2023/02/28 10:08:51;;;;;;;25.90;13.30;;;;;;;;;;5036372;28;20518;-79
2023/02/28 10:11:20;;;;;;;25.83;14.10;;;;;;;;;;5032800;28;20128;-79
2023/02/28 10:13:55;;;;;;;23.88;14.05;;;;;;;;;;5035923;28;20079;-80
2023/02/28 10:16:28;;;;;;;26.80;14.73;;;;;;;;;;5029107;28;20099;-78
2023/02/28 10:19:00;;;;;;;26.83;14.18;;;;;;;;;;5036066;28;20119;-80
2023/02/28 10:21:33;;;;;;;27.45;14.50;;;;;;;;;;5037500;28;20049;-78
2023/02/28 10:24:05;;;;;;;25.05;13.63;;;;;;;;;;5036137;28;20084;-78
2023/02/28 10:26:33;;;;;;;28.10;14.20;;;;;;;;;;5036633;28;20052;-79
2023/02/28 10:29:00;;;;;;;28.25;13.65;;;;;;;;;;5035679;28;20049;-81
2023/02/28 10:31:27;;;;;;;27.02;14.45;;;;;;;;;;5034102;28;20048;-77
2023/02/28 10:33:54;;;;;;;30.73;15.45;;;;;;;;;;5037738;28;20050;-80
2023/02/28 10:36:22;;;;;;;27.90;15.07;;;;;;;;;;5036322;28;20045;-80
2023/02/28 10:38:51;;;;;;;25.67;13.95;;;;;;;;;;5037948;28;20042;-81
2023/02/28 10:41:28;;;;;;;23.10;13.93;;;;;;;;;;5033941;28;20527;-80
2023/02/28 10:44:14;;;;;;;26.40;13.50;;;;;;;;;;5021146;28;20053;-80
2023/02/28 10:46:41;;;;;;;31.67;14.25;;;;;;;;;;5035329;28;20049;-79
2023/02/28 10:49:15;;;;;;;24.63;14.70;;;;;;;;;;5038797;28;20079;-80
2023/02/28 10:51:42;;;;;;;26.13;13.32;;;;;;;;;;5041691;28;20041;-81
2023/02/28 10:54:19;;;;;;;28.20;14.02;;;;;;;;;;5053791;28;20037;-81
2023/02/28 10:56:46;;;;;;;28.58;15.88;;;;;;;;;;5054883;28;20109;-79
2023/02/28 10:59:28;;;;;;;26.38;14.02;;;;;;;;;;5054171;28;20045;-81
2023/02/28 11:01:55;;;;;;;25.50;13.48;;;;;;;;;;5046602;28;20072;-80
2023/02/28 11:04:37;;;;;;;26.70;14.55;;;;;;;;;;5054977;28;20033;-80
2023/02/28 11:07:18;;;;;;;23.05;13.48;;;;;;;;;;5054293;28;20067;-80
2023/02/28 11:09:49;;;;;;;26.63;14.55;;;;;;;;;;5051576;28;20049;-79
2023/02/28 11:12:24;;;;;;;27.00;14.18;;;;;;;;;;5055643;28;20053;-78
2023/02/28 11:14:57;;;;;;;28.73;15.18;;;;;;;;;;5056520;28;20053;-80
2023/02/28 11:17:26;;;;;;;29.67;14.57;;;;;;;;;;5049441;28;20045;-80
2023/02/28 11:19:55;;;;;;;26.65;13.80;;;;;;;;;;5046773;28;20049;-79
2023/02/28 11:22:28;;;;;;;23.35;13.45;;;;;;;;;;5037138;28;20124;-79
2023/02/28 11:25:03;;;;;;;28.88;15.52;;;;;;;;;;5026526;28;20104;-79
2023/02/28 11:27:49;;;;;;;26.70;14.38;;;;;;;;;;5041360;28;20562;-79
2023/02/28 11:30:35;;;;;;;26.98;14.70;;;;;;;;;;5036484;28;20044;-79
2023/02/28 11:33:19;;;;;;;25.90;14.57;;;;;;;;;;5033173;28;20052;-78
2023/02/28 11:35:49;;;;;;;25.80;13.05;;;;;;;;;;5034274;28;20085;-78
2023/02/28 11:38:15;;;;;;;26.52;14.65;;;;;;;;;;5032898;28;20077;-79
2023/02/28 11:40:50;;;;;;;23.75;13.90;;;;;;;;;;5035462;28;20681;-78
2023/02/28 11:43:31;;;;;;;26.13;13.48;;;;;;;;;;5032595;28;20049;-78
2023/02/28 11:46:09;;;;;;;;;;;;;;;;;;5031184;28;20056;-79
2023/02/28 11:48:50;;;;;;;25.65;13.90;;;;;;;;;;5037069;28;19931;-79
2023/02/28 11:51:22;;;;;;;22.05;13.02;;;;;;;;;;5038580;28;20073;-79
2023/02/28 11:54:05;;;;;;;23.58;12.95;;;;;;;;;;5030192;28;20069;-81
2023/02/28 11:56:38;;;;;;;23.33;12.68;;;;;;;;;;5027101;28;20042;-79
2023/02/28 11:59:20;;;;;;;25.20;14.07;;;;;;;;;;5026452;28;20426;-79
2023/02/28 12:02:05;;;;;;;24.67;12.40;;;;;;;;;;5032823;28;20505;-77
2023/02/28 12:04:41;;;;;;;23.85;13.55;;;;;;;;;;5030223;28;20144;-78
2023/02/28 12:07:15;;;;;;;25.10;12.82;;;;;;;;;;5030587;28;20134;-81
2023/02/28 12:09:51;;;;;;;23.40;12.57;;;;;;;;;;5027071;28;20150;-79
2023/02/28 12:12:27;;;;;;;23.55;12.27;;;;;;;;;;5035243;28;20510;-78
2023/02/28 12:15:17;;;;;;;22.33;12.98;;;;;;;;;;5037989;28;20049;-78
2023/02/28 12:17:56;;;;;;;25.45;12.13;;;;;;;;;;5040771;28;20050;-79
2023/02/28 12:20:31;;;;;;;24.27;12.88;;;;;;;;;;5034918;28;20091;-77
2023/02/28 12:23:24;;;;;;;23.30;12.98;;;;;;;;;;5036579;28;20115;-78
2023/02/28 12:26:09;;;;;;;21.65;11.57;;;;;;;;;;5047189;28;20105;-77
2023/02/28 12:28:43;;;;;;;23.90;12.55;;;;;;;;;;5039853;28;20041;-78
2023/02/28 12:31:18;;;;;;;22.88;12.73;;;;;;;;;;5025434;28;20069;-78
2023/02/28 12:33:48;;;;;;;23.02;12.80;;;;;;;;;;5030071;28;20106;-76
2023/02/28 12:36:21;;;;;;;22.27;12.32;;;;;;;;;;5043121;28;20095;-76
2023/02/28 12:38:54;;;;;;;25.48;12.75;;;;;;;;;;5042332;28;20110;-76
2023/02/28 12:41:27;;;;;;;26.58;11.88;;;;;;;;;;5033967;28;20433;-77
2023/02/28 12:44:03;;;;;;;24.60;12.57;;;;;;;;;;5030980;28;20041;-77
2023/02/28 12:46:34;;;;;;;24.10;12.30;;;;;;;;;;5028320;28;20046;-78
2023/02/28 12:49:06;;;;;;;24.27;13.80;;;;;;;;;;5029066;28;20113;-78
2023/02/28 12:51:36;;;;;;;24.23;13.00;;;;;;;;;;5044316;28;20064;-78
2023/02/28 12:54:11;;;;;;;22.52;12.00;;;;;;;;;;5041688;28;20053;-79
2023/02/28 12:56:45;;;;;;;23.67;12.80;;;;;;;;;;5042283;28;20080;-79
2023/02/28 12:59:23;;;;;;;20.75;11.52;;;;;;;;;;5040005;28;20088;-77
2023/02/28 13:02:02;;;;;;;23.33;13.52;;;;;;;;;;5037639;28;20053;-78
2023/02/28 13:04:53;;;;;;;21.15;11.90;;;;;;;;;;5027568;28;20109;-79
2023/02/28 13:07:49;;;;;;;20.85;11.32;;;;;;;;;;5038927;28;20045;-79
2023/02/28 13:10:18;;;;;;;25.60;12.43;;;;;;;;;;5041484;28;20045;-79
2023/02/28 13:12:50;;;;;;;24.58;13.13;;;;;;;;;;5044682;28;20046;-78
2023/02/28 13:15:23;;;;;;;22.15;11.82;;;;;;;;;;5041676;28;20046;-79
2023/02/28 13:17:52;;;;;;;23.85;12.80;;;;;;;;;;5041531;28;20039;-78
2023/02/28 13:20:21;;;;;;;21.92;12.68;;;;;;;;;;5047295;28;20072;-78
2023/02/28 13:22:49;;;;;;;20.27;12.20;;;;;;;;;;5042182;28;20736;-78
2023/02/28 13:25:57;;;;;;;22.58;11.88;;;;;;;;;;5036740;28;20060;-79
2023/02/28 13:29:06;;;;;;;20.02;11.80;;;;;;;;;;4962673;29;20439;-78
2023/02/28 13:32:14;;;;;;;20.02;11.88;;;;;;;;;;5033301;28;20072;-79
2023/02/28 13:34:48;;;;;;;23.60;12.07;;;;;;;;;;5022896;28;20058;-78
2023/02/28 13:37:38;;;;;;;19.50;11.90;;;;;;;;;;5039681;28;20057;-79
2023/02/28 13:40:36;;;;;;;23.13;11.98;;;;;;;;;;5042848;28;20089;-79
2023/02/28 13:43:04;;;;;;;22.45;12.20;;;;;;;;;;5036849;28;20059;-78
2023/02/28 13:45:37;;;;;;;23.33;12.38;;;;;;;;;;5044279;28;20064;-79
2023/02/28 13:48:17;;;;;;;23.08;13.02;;;;;;;;;;5043321;28;20045;-78
2023/02/28 13:50:44;;;;;;;22.75;12.60;;;;;;;;;;5044836;23;20136;-77
2023/02/28 13:53:42;;;;;;;22.15;12.35;;;;;;;;;;5031642;28;20049;-75
2023/02/28 13:56:24;;;;;;;25.67;12.68;;;;;;;;;;5031528;28;20458;-76
2023/02/28 13:58:56;;;;;;;21.25;11.18;;;;;;;;;;5011532;28;20056;-76
2023/02/28 14:01:37;;;;;;;22.77;12.70;;;;;;;;;;5019174;28;20046;-76
2023/02/28 14:04:24;;;;;;;23.25;12.25;;;;;;;;;;5029714;28;20049;-75
2023/02/28 14:06:54;;;;;;;22.92;12.88;;;;;;;;;;5031774;28;20050;-76
2023/02/28 14:09:25;;;;;;;22.25;12.30;;;;;;;;;;5035434;28;20045;-77
2023/02/28 14:11:53;;;;;;;24.38;12.35;;;;;;;;;;5032545;28;20128;-77
2023/02/28 14:15:02;;;;;;;22.08;12.40;;;;;;;;;;5029408;28;20125;-76
2023/02/28 14:17:29;;;;;;;24.75;13.15;;;;;;;;;;5013535;28;20045;-76
2023/02/28 14:19:59;;;;;;;23.65;12.60;;;;;;;;;;5030499;28;20127;-76
2023/02/28 14:22:53;;;;;;;18.05;11.15;;;;;;;;;;5031365;28;20058;-76
2023/02/28 14:25:28;;;;;;;20.83;11.80;;;;;;;;;;5027803;28;20057;-76
2023/02/28 14:28:07;;;;;;;21.88;12.32;;;;;;;;;;5022517;28;20152;-75
2023/02/28 14:30:58;;;;;;;24.50;12.77;;;;;;;;;;5026185;28;20076;-77
2023/02/28 14:33:40;;;;;;;19.55;11.65;;;;;;;;;;5031890;28;20049;-76
2023/02/28 14:36:15;;;;;;;23.02;11.35;;;;;;;;;;5032454;28;20132;-76
2023/02/28 14:38:46;;;;;;;22.88;11.82;;;;;;;;;;5031656;28;20045;-77
2023/02/28 14:41:20;;;;;;;20.40;12.13;;;;;;;;;;5020875;28;20049;-76
2023/02/28 14:43:56;;;;;;;32.20;17.48;;;;;;;;;;5022544;28;20041;-76
2023/02/28 14:46:28;;;;;;;25.15;13.55;;;;;;;;;;5024992;28;20128;-76
2023/02/28 14:48:55;;;;;;;22.50;11.77;;;;;;;;;;5022719;28;20553;-76
2023/02/28 14:51:24;;;;;;;22.23;11.82;;;;;;;;;;5023189;28;20053;-78